sensor_id;sensor_type;location;lat;lon;timestamp;P1;durP1;ratioP1;P2;durP2;ratioP2
2386;SDS011;49473;50.772;8.768;2023-09-12T00:00:06;15.83;;;11.30;;
2386;SDS011;49473;50.772;8.768;2023-09-12T00:02:34;18.53;;;10.97;;
2386;SDS011;49473;50.772;8.768;2023-09-12T00:05:02;12.80;;;11.23;;
2386;SDS011;49473;50.772;8.768;2023-09-12T00:07:30;12.27;;;11.10;;
2386;SDS011;49473;50.772;8.768;2023-09-12T00:09:56;15.67;;;11.20;;
2386;SDS011;49473;50.772;8.768;2023-09-12T00:12:24;10.97;;;9.87;;
2386;SDS011;49473;50.772;8.768;2023-09-12T00:14:50;12.53;;;11.00;;
2386;SDS011;49473;50.772;8.768;2023-09-12T00:17:17;15.40;;;11.20;;
2386;SDS011;49473;50.772;8.768;2023-09-12T00:19:44;13.63;;;10.60;;
2386;SDS011;49473;50.772;8.768;2023-09-12T00:22:12;17.50;;;11.03;;
2386;SDS011;49473;50.772;8.768;2023-09-12T00:24:39;14.47;;;10.20;;
2386;SDS011;49473;50.772;8.768;2023-09-12T00:27:06;14.23;;;10.67;;
2386;SDS011;49473;50.772;8.768;2023-09-12T00:29:33;11.93;;;9.27;;
2386;SDS011;49473;50.772;8.768;2023-09-12T00:31:59;11.73;;;9.83;;
2386;SDS011;49473;50.772;8.768;2023-09-12T00:34:26;16.63;;;9.90;;
2386;SDS011;49473;50.772;8.768;2023-09-12T00:36:53;10.77;;;9.70;;
2386;SDS011;49473;50.772;8.768;2023-09-12T00:39:21;11.67;;;9.30;;
2386;SDS011;49473;50.772;8.768;2023-09-12T00:41:48;12.33;;;9.70;;
2386;SDS011;49473;50.772;8.768;2023-09-12T00:44:14;13.87;;;10.87;;
2386;SDS011;49473;50.772;8.768;2023-09-12T00:46:41;13.07;;;10.37;;
2386;SDS011;49473;50.772;8.768;2023-09-12T00:49:09;11.20;;;10.10;;
2386;SDS011;49473;50.772;8.768;2023-09-12T00:51:38;13.83;;;10.50;;
2386;SDS011;49473;50.772;8.768;2023-09-12T00:54:05;14.00;;;10.67;;
2386;SDS011;49473;50.772;8.768;2023-09-12T00:56:33;14.10;;;10.53;;
2386;SDS011;49473;50.772;8.768;2023-09-12T00:59:00;10.50;;;9.40;;
2386;SDS011;49473;50.772;8.768;2023-09-12T01:01:27;11.90;;;10.30;;
2386;SDS011;49473;50.772;8.768;2023-09-12T01:03:55;13.33;;;10.53;;
2386;SDS011;49473;50.772;8.768;2023-09-12T01:06:22;12.50;;;11.20;;
2386;SDS011;49473;50.772;8.768;2023-09-12T01:08:51;12.63;;;11.13;;
2386;SDS011;49473;50.772;8.768;2023-09-12T01:11:18;11.77;;;10.03;;
2386;SDS011;49473;50.772;8.768;2023-09-12T01:13:48;12.37;;;10.60;;
2386;SDS011;49473;50.772;8.768;2023-09-12T01:16:14;12.33;;;11.07;;
2386;SDS011;49473;50.772;8.768;2023-09-12T01:18:41;13.27;;;11.27;;
2386;SDS011;49473;50.772;8.768;2023-09-12T01:21:17;16.00;;;10.33;;
2386;SDS011;49473;50.772;8.768;2023-09-12T01:24:19;10.73;;;9.83;;
2386;SDS011;49473;50.772;8.768;2023-09-12T01:29:46;13.27;;;10.80;;
2386;SDS011;49473;50.772;8.768;2023-09-12T01:32:19;13.50;;;10.70;;
2386;SDS011;49473;50.772;8.768;2023-09-12T01:34:46;15.70;;;9.83;;
2386;SDS011;49473;50.772;8.768;2023-09-12T01:37:13;12.80;;;10.97;;
2386;SDS011;49473;50.772;8.768;2023-09-12T01:39:40;11.70;;;10.47;;
2386;SDS011;49473;50.772;8.768;2023-09-12T01:42:08;17.97;;;12.03;;
2386;SDS011;49473;50.772;8.768;2023-09-12T01:44:42;14.00;;;12.50;;
2386;SDS011;49473;50.772;8.768;2023-09-12T01:47:10;12.87;;;11.57;;
2386;SDS011;49473;50.772;8.768;2023-09-12T01:49:38;13.23;;;11.70;;
2386;SDS011;49473;50.772;8.768;2023-09-12T01:52:07;17.63;;;11.07;;
2386;SDS011;49473;50.772;8.768;2023-09-12T01:54:34;13.37;;;11.00;;
2386;SDS011;49473;50.772;8.768;2023-09-12T01:57:02;13.73;;;11.07;;
2386;SDS011;49473;50.772;8.768;2023-09-12T01:59:30;14.17;;;10.70;;
2386;SDS011;49473;50.772;8.768;2023-09-12T02:01:59;11.07;;;9.50;;
2386;SDS011;49473;50.772;8.768;2023-09-12T02:04:26;12.17;;;9.60;;
2386;SDS011;49473;50.772;8.768;2023-09-12T02:06:53;15.50;;;11.33;;
2386;SDS011;49473;50.772;8.768;2023-09-12T02:09:19;14.90;;;10.90;;
2386;SDS011;49473;50.772;8.768;2023-09-12T02:11:48;12.87;;;11.33;;
2386;SDS011;49473;50.772;8.768;2023-09-12T02:14:16;14.17;;;11.53;;
2386;SDS011;49473;50.772;8.768;2023-09-12T02:16:44;14.10;;;11.77;;
2386;SDS011;49473;50.772;8.768;2023-09-12T02:19:12;12.20;;;10.90;;
2386;SDS011;49473;50.772;8.768;2023-09-12T02:21:39;13.60;;;12.00;;
2386;SDS011;49473;50.772;8.768;2023-09-12T02:24:06;13.10;;;11.67;;
2386;SDS011;49473;50.772;8.768;2023-09-12T02:26:33;12.37;;;11.10;;
2386;SDS011;49473;50.772;8.768;2023-09-12T02:29:01;11.70;;;10.47;;
2386;SDS011;49473;50.772;8.768;2023-09-12T02:31:28;13.30;;;10.30;;
2386;SDS011;49473;50.772;8.768;2023-09-12T02:33:55;14.63;;;11.00;;
2386;SDS011;49473;50.772;8.768;2023-09-12T02:36:24;13.80;;;10.60;;
2386;SDS011;49473;50.772;8.768;2023-09-12T02:38:50;13.80;;;10.83;;
2386;SDS011;49473;50.772;8.768;2023-09-12T02:41:17;12.37;;;9.90;;
2386;SDS011;49473;50.772;8.768;2023-09-12T02:43:44;15.00;;;11.20;;
2386;SDS011;49473;50.772;8.768;2023-09-12T02:46:10;12.73;;;11.50;;
2386;SDS011;49473;50.772;8.768;2023-09-12T02:48:37;15.10;;;11.23;;
2386;SDS011;49473;50.772;8.768;2023-09-12T02:51:04;11.17;;;10.00;;
2386;SDS011;49473;50.772;8.768;2023-09-12T02:53:32;12.77;;;11.43;;
2386;SDS011;49473;50.772;8.768;2023-09-12T02:55:59;15.43;;;11.40;;
2386;SDS011;49473;50.772;8.768;2023-09-12T02:58:26;13.43;;;10.70;;
2386;SDS011;49473;50.772;8.768;2023-09-12T03:00:52;15.37;;;10.97;;
2386;SDS011;49473;50.772;8.768;2023-09-12T03:03:19;13.60;;;10.80;;
2386;SDS011;49473;50.772;8.768;2023-09-12T03:05:46;11.30;;;10.20;;
2386;SDS011;49473;50.772;8.768;2023-09-12T03:08:13;11.90;;;10.63;;
2386;SDS011;49473;50.772;8.768;2023-09-12T03:10:41;10.83;;;9.70;;
2386;SDS011;49473;50.772;8.768;2023-09-12T03:13:08;11.13;;;10.00;;
2386;SDS011;49473;50.772;8.768;2023-09-12T03:15:37;14.50;;;10.90;;
2386;SDS011;49473;50.772;8.768;2023-09-12T03:18:04;13.63;;;10.37;;
2386;SDS011;49473;50.772;8.768;2023-09-12T03:20:31;11.60;;;10.43;;
2386;SDS011;49473;50.772;8.768;2023-09-12T03:22:58;19.10;;;11.00;;
2386;SDS011;49473;50.772;8.768;2023-09-12T03:25:25;12.10;;;10.33;;
2386;SDS011;49473;50.772;8.768;2023-09-12T03:27:53;12.00;;;10.80;;
2386;SDS011;49473;50.772;8.768;2023-09-12T03:30:20;11.50;;;9.87;;
2386;SDS011;49473;50.772;8.768;2023-09-12T03:32:47;12.33;;;11.13;;
2386;SDS011;49473;50.772;8.768;2023-09-12T03:35:14;11.57;;;10.47;;
2386;SDS011;49473;50.772;8.768;2023-09-12T03:37:41;12.27;;;11.07;;
2386;SDS011;49473;50.772;8.768;2023-09-12T03:40:09;12.00;;;11.00;;
2386;SDS011;49473;50.772;8.768;2023-09-12T03:42:36;12.30;;;11.10;;
2386;SDS011;49473;50.772;8.768;2023-09-12T03:45:05;11.90;;;10.83;;
2386;SDS011;49473;50.772;8.768;2023-09-12T03:47:33;21.70;;;10.70;;
2386;SDS011;49473;50.772;8.768;2023-09-12T03:50:00;15.30;;;11.00;;
2386;SDS011;49473;50.772;8.768;2023-09-12T03:52:27;15.90;;;10.97;;
2386;SDS011;49473;50.772;8.768;2023-09-12T03:54:54;12.77;;;10.57;;
2386;SDS011;49473;50.772;8.768;2023-09-12T03:57:20;12.83;;;10.40;;
2386;SDS011;49473;50.772;8.768;2023-09-12T03:59:47;13.13;;;11.33;;
2386;SDS011;49473;50.772;8.768;2023-09-12T04:02:17;17.30;;;12.77;;
2386;SDS011;49473;50.772;8.768;2023-09-12T04:04:44;12.97;;;11.80;;
2386;SDS011;49473;50.772;8.768;2023-09-12T04:07:11;12.90;;;11.57;;
2386;SDS011;49473;50.772;8.768;2023-09-12T04:09:38;14.37;;;12.70;;
2386;SDS011;49473;50.772;8.768;2023-09-12T04:12:05;12.90;;;11.87;;
2386;SDS011;49473;50.772;8.768;2023-09-12T04:14:34;13.53;;;12.13;;
2386;SDS011;49473;50.772;8.768;2023-09-12T04:17:00;13.30;;;11.83;;
2386;SDS011;49473;50.772;8.768;2023-09-12T04:19:29;11.83;;;10.73;;
2386;SDS011;49473;50.772;8.768;2023-09-12T04:21:56;12.50;;;11.33;;
2386;SDS011;49473;50.772;8.768;2023-09-12T04:24:23;12.37;;;10.40;;
2386;SDS011;49473;50.772;8.768;2023-09-12T04:26:50;14.13;;;10.50;;
2386;SDS011;49473;50.772;8.768;2023-09-12T04:29:17;16.87;;;11.90;;
2386;SDS011;49473;50.772;8.768;2023-09-12T04:31:43;13.27;;;11.87;;
2386;SDS011;49473;50.772;8.768;2023-09-12T04:34:10;13.33;;;11.77;;
2386;SDS011;49473;50.772;8.768;2023-09-12T04:36:38;11.90;;;10.87;;
2386;SDS011;49473;50.772;8.768;2023-09-12T04:39:05;12.53;;;11.20;;
2386;SDS011;49473;50.772;8.768;2023-09-12T04:41:32;10.93;;;9.80;;
2386;SDS011;49473;50.772;8.768;2023-09-12T04:43:59;12.03;;;10.93;;
2386;SDS011;49473;50.772;8.768;2023-09-12T04:46:27;12.10;;;10.70;;
2386;SDS011;49473;50.772;8.768;2023-09-12T04:48:54;15.20;;;11.43;;
2386;SDS011;49473;50.772;8.768;2023-09-12T04:51:20;11.50;;;10.30;;
2386;SDS011;49473;50.772;8.768;2023-09-12T04:53:48;12.70;;;10.10;;
2386;SDS011;49473;50.772;8.768;2023-09-12T04:56:16;14.33;;;10.73;;
2386;SDS011;49473;50.772;8.768;2023-09-12T04:58:43;13.77;;;11.27;;
2386;SDS011;49473;50.772;8.768;2023-09-12T05:01:10;12.43;;;9.90;;
2386;SDS011;49473;50.772;8.768;2023-09-12T05:03:37;16.07;;;11.40;;
2386;SDS011;49473;50.772;8.768;2023-09-12T05:06:04;13.37;;;10.83;;
2386;SDS011;49473;50.772;8.768;2023-09-12T05:08:31;15.07;;;11.77;;
2386;SDS011;49473;50.772;8.768;2023-09-12T05:10:59;18.70;;;11.67;;
2386;SDS011;49473;50.772;8.768;2023-09-12T05:13:27;11.93;;;10.73;;
2386;SDS011;49473;50.772;8.768;2023-09-12T05:15:54;16.60;;;11.33;;
2386;SDS011;49473;50.772;8.768;2023-09-12T05:18:23;11.90;;;10.67;;
2386;SDS011;49473;50.772;8.768;2023-09-12T05:20:50;13.53;;;11.47;;
2386;SDS011;49473;50.772;8.768;2023-09-12T05:23:16;11.80;;;10.57;;
2386;SDS011;49473;50.772;8.768;2023-09-12T05:25:43;18.23;;;11.50;;
2386;SDS011;49473;50.772;8.768;2023-09-12T05:28:11;12.37;;;11.17;;
2386;SDS011;49473;50.772;8.768;2023-09-12T05:30:41;12.10;;;9.70;;
2386;SDS011;49473;50.772;8.768;2023-09-12T05:33:08;11.23;;;10.10;;
2386;SDS011;49473;50.772;8.768;2023-09-12T05:35:34;11.93;;;10.67;;
2386;SDS011;49473;50.772;8.768;2023-09-12T05:38:02;11.40;;;10.40;;
2386;SDS011;49473;50.772;8.768;2023-09-12T05:40:29;14.07;;;11.23;;
2386;SDS011;49473;50.772;8.768;2023-09-12T05:42:56;15.40;;;11.20;;
2386;SDS011;49473;50.772;8.768;2023-09-12T05:45:24;12.83;;;11.63;;
2386;SDS011;49473;50.772;8.768;2023-09-12T05:47:51;12.10;;;10.13;;
2386;SDS011;49473;50.772;8.768;2023-09-12T05:50:18;13.33;;;11.53;;
2386;SDS011;49473;50.772;8.768;2023-09-12T05:52:45;14.00;;;10.63;;
2386;SDS011;49473;50.772;8.768;2023-09-12T05:55:11;12.97;;;10.93;;
2386;SDS011;49473;50.772;8.768;2023-09-12T05:57:38;13.03;;;11.70;;
2386;SDS011;49473;50.772;8.768;2023-09-12T06:00:06;13.07;;;11.67;;
2386;SDS011;49473;50.772;8.768;2023-09-12T06:02:37;13.00;;;11.23;;
2386;SDS011;49473;50.772;8.768;2023-09-12T06:05:04;12.63;;;11.47;;
2386;SDS011;49473;50.772;8.768;2023-09-12T06:07:31;14.17;;;11.57;;
2386;SDS011;49473;50.772;8.768;2023-09-12T06:09:58;18.10;;;11.40;;
2386;SDS011;49473;50.772;8.768;2023-09-12T06:12:25;11.40;;;10.30;;
2386;SDS011;49473;50.772;8.768;2023-09-12T06:14:52;12.23;;;11.13;;
2386;SDS011;49473;50.772;8.768;2023-09-12T06:17:20;12.00;;;10.73;;
2386;SDS011;49473;50.772;8.768;2023-09-12T06:19:49;13.57;;;10.97;;
2386;SDS011;49473;50.772;8.768;2023-09-12T06:22:16;12.27;;;11.00;;
2386;SDS011;49473;50.772;8.768;2023-09-12T06:24:43;13.43;;;11.03;;
2386;SDS011;49473;50.772;8.768;2023-09-12T06:27:10;11.50;;;10.30;;
2386;SDS011;49473;50.772;8.768;2023-09-12T06:29:37;11.10;;;10.10;;
2386;SDS011;49473;50.772;8.768;2023-09-12T06:32:04;16.20;;;11.80;;
2386;SDS011;49473;50.772;8.768;2023-09-12T06:34:31;12.30;;;11.00;;
2386;SDS011;49473;50.772;8.768;2023-09-12T06:37:01;11.03;;;10.03;;
2386;SDS011;49473;50.772;8.768;2023-09-12T06:39:27;12.40;;;10.33;;
2386;SDS011;49473;50.772;8.768;2023-09-12T06:41:54;10.50;;;9.40;;
2386;SDS011;49473;50.772;8.768;2023-09-12T06:44:21;17.20;;;10.40;;
2386;SDS011;49473;50.772;8.768;2023-09-12T06:46:48;13.70;;;9.60;;
2386;SDS011;49473;50.772;8.768;2023-09-12T06:49:14;13.77;;;9.77;;
2386;SDS011;49473;50.772;8.768;2023-09-12T06:51:41;15.10;;;10.03;;
2386;SDS011;49473;50.772;8.768;2023-09-12T06:54:09;14.93;;;11.03;;
2386;SDS011;49473;50.772;8.768;2023-09-12T06:56:37;11.27;;;10.17;;
2386;SDS011;49473;50.772;8.768;2023-09-12T06:59:07;14.53;;;10.33;;
2386;SDS011;49473;50.772;8.768;2023-09-12T07:01:33;15.43;;;10.00;;
2386;SDS011;49473;50.772;8.768;2023-09-12T07:04:00;12.67;;;10.07;;
2386;SDS011;49473;50.772;8.768;2023-09-12T07:06:28;9.53;;;8.63;;
2386;SDS011;49473;50.772;8.768;2023-09-12T07:08:54;11.13;;;9.80;;
2386;SDS011;49473;50.772;8.768;2023-09-12T07:11:22;14.33;;;9.77;;
2386;SDS011;49473;50.772;8.768;2023-09-12T07:13:49;15.40;;;10.50;;
2386;SDS011;49473;50.772;8.768;2023-09-12T07:16:16;14.50;;;10.40;;
2386;SDS011;49473;50.772;8.768;2023-09-12T07:18:43;13.80;;;9.53;;
2386;SDS011;49473;50.772;8.768;2023-09-12T07:21:09;10.90;;;9.33;;
2386;SDS011;49473;50.772;8.768;2023-09-12T07:23:37;13.20;;;9.80;;
2386;SDS011;49473;50.772;8.768;2023-09-12T07:26:04;13.73;;;9.70;;
2386;SDS011;49473;50.772;8.768;2023-09-12T07:28:32;12.00;;;10.03;;
2386;SDS011;49473;50.772;8.768;2023-09-12T07:30:59;13.63;;;9.27;;
2386;SDS011;49473;50.772;8.768;2023-09-12T07:33:26;11.40;;;9.00;;
2386;SDS011;49473;50.772;8.768;2023-09-12T07:35:52;10.77;;;9.20;;
2386;SDS011;49473;50.772;8.768;2023-09-12T07:38:20;15.07;;;9.40;;
2386;SDS011;49473;50.772;8.768;2023-09-12T07:40:47;10.57;;;8.50;;
2386;SDS011;49473;50.772;8.768;2023-09-12T07:43:14;12.37;;;9.37;;
2386;SDS011;49473;50.772;8.768;2023-09-12T07:45:42;8.93;;;8.07;;
2386;SDS011;49473;50.772;8.768;2023-09-12T07:48:09;10.33;;;8.37;;
2386;SDS011;49473;50.772;8.768;2023-09-12T07:50:37;11.50;;;8.43;;
2386;SDS011;49473;50.772;8.768;2023-09-12T07:53:04;9.87;;;7.33;;
2386;SDS011;49473;50.772;8.768;2023-09-12T07:55:31;11.67;;;8.17;;
2386;SDS011;49473;50.772;8.768;2023-09-12T07:58:01;9.53;;;7.40;;
2386;SDS011;49473;50.772;8.768;2023-09-12T08:00:28;10.10;;;7.47;;
2386;SDS011;49473;50.772;8.768;2023-09-12T08:02:56;11.20;;;7.70;;
2386;SDS011;49473;50.772;8.768;2023-09-12T08:05:22;9.20;;;7.40;;
2386;SDS011;49473;50.772;8.768;2023-09-12T08:07:49;8.37;;;6.90;;
2386;SDS011;49473;50.772;8.768;2023-09-12T08:10:16;9.70;;;7.53;;
2386;SDS011;49473;50.772;8.768;2023-09-12T08:12:43;8.73;;;6.57;;
2386;SDS011;49473;50.772;8.768;2023-09-12T08:15:09;7.33;;;6.53;;
2386;SDS011;49473;50.772;8.768;2023-09-12T08:17:36;10.23;;;7.13;;
2386;SDS011;49473;50.772;8.768;2023-09-12T08:20:06;13.17;;;8.03;;
2386;SDS011;49473;50.772;8.768;2023-09-12T08:22:35;9.97;;;9.07;;
2386;SDS011;49473;50.772;8.768;2023-09-12T08:25:02;13.67;;;9.80;;
2386;SDS011;49473;50.772;8.768;2023-09-12T08:27:29;9.37;;;8.47;;
2386;SDS011;49473;50.772;8.768;2023-09-12T08:29:56;10.07;;;9.10;;
2386;SDS011;49473;50.772;8.768;2023-09-12T08:32:23;9.97;;;9.07;;
2386;SDS011;49473;50.772;8.768;2023-09-12T08:34:50;10.37;;;8.90;;
2386;SDS011;49473;50.772;8.768;2023-09-12T08:37:18;10.90;;;9.13;;
2386;SDS011;49473;50.772;8.768;2023-09-12T08:39:44;9.57;;;8.67;;
2386;SDS011;49473;50.772;8.768;2023-09-12T08:42:12;9.80;;;8.57;;
2386;SDS011;49473;50.772;8.768;2023-09-12T08:44:40;10.40;;;7.83;;
2386;SDS011;49473;50.772;8.768;2023-09-12T08:47:07;8.43;;;7.70;;
2386;SDS011;49473;50.772;8.768;2023-09-12T08:49:35;8.80;;;8.00;;
2386;SDS011;49473;50.772;8.768;2023-09-12T08:52:03;11.27;;;8.50;;
2386;SDS011;49473;50.772;8.768;2023-09-12T08:54:31;10.27;;;7.90;;
2386;SDS011;49473;50.772;8.768;2023-09-12T08:56:58;12.03;;;7.73;;
2386;SDS011;49473;50.772;8.768;2023-09-12T08:59:27;9.50;;;7.60;;
2386;SDS011;49473;50.772;8.768;2023-09-12T09:01:54;8.43;;;7.63;;
2386;SDS011;49473;50.772;8.768;2023-09-12T09:04:23;9.40;;;8.07;;
2386;SDS011;49473;50.772;8.768;2023-09-12T09:06:51;8.50;;;6.90;;
2386;SDS011;49473;50.772;8.768;2023-09-12T09:09:19;11.53;;;8.00;;
2386;SDS011;49473;50.772;8.768;2023-09-12T09:11:48;7.87;;;7.17;;
2386;SDS011;49473;50.772;8.768;2023-09-12T09:14:15;9.33;;;8.40;;
2386;SDS011;49473;50.772;8.768;2023-09-12T09:16:42;10.53;;;7.33;;
2386;SDS011;49473;50.772;8.768;2023-09-12T09:19:09;11.67;;;8.17;;
2386;SDS011;49473;50.772;8.768;2023-09-12T09:21:36;10.13;;;7.80;;
2386;SDS011;49473;50.772;8.768;2023-09-12T09:24:06;10.43;;;8.33;;
2386;SDS011;49473;50.772;8.768;2023-09-12T09:26:44;11.37;;;7.13;;
2386;SDS011;49473;50.772;8.768;2023-09-12T09:29:15;8.80;;;7.10;;
2386;SDS011;49473;50.772;8.768;2023-09-12T09:31:43;12.37;;;7.03;;
2386;SDS011;49473;50.772;8.768;2023-09-12T09:34:11;12.33;;;8.03;;
2386;SDS011;49473;50.772;8.768;2023-09-12T09:36:42;10.83;;;6.90;;
2386;SDS011;49473;50.772;8.768;2023-09-12T09:39:09;9.37;;;7.07;;
2386;SDS011;49473;50.772;8.768;2023-09-12T09:41:36;9.50;;;6.90;;
2386;SDS011;49473;50.772;8.768;2023-09-12T09:44:05;7.60;;;6.83;;
2386;SDS011;49473;50.772;8.768;2023-09-12T09:46:34;12.10;;;7.57;;
2386;SDS011;49473;50.772;8.768;2023-09-12T09:49:01;8.10;;;5.93;;
2386;SDS011;49473;50.772;8.768;2023-09-12T09:51:29;11.17;;;6.20;;
2386;SDS011;49473;50.772;8.768;2023-09-12T09:53:56;10.93;;;6.23;;
2386;SDS011;49473;50.772;8.768;2023-09-12T09:56:25;10.57;;;5.97;;
2386;SDS011;49473;50.772;8.768;2023-09-12T09:58:53;7.00;;;6.30;;
2386;SDS011;49473;50.772;8.768;2023-09-12T10:01:21;6.30;;;5.70;;
2386;SDS011;49473;50.772;8.768;2023-09-12T10:03:50;9.30;;;6.33;;
2386;SDS011;49473;50.772;8.768;2023-09-12T10:06:18;10.43;;;6.13;;
2386;SDS011;49473;50.772;8.768;2023-09-12T10:08:49;8.80;;;6.30;;
2386;SDS011;49473;50.772;8.768;2023-09-12T10:11:17;6.27;;;5.67;;
2386;SDS011;49473;50.772;8.768;2023-09-12T10:13:48;7.57;;;5.73;;
2386;SDS011;49473;50.772;8.768;2023-09-12T10:16:19;6.40;;;5.47;;
2386;SDS011;49473;50.772;8.768;2023-09-12T10:21:40;9.60;;;5.80;;
2386;SDS011;49473;50.772;8.768;2023-09-12T10:24:14;7.43;;;5.03;;
2386;SDS011;49473;50.772;8.768;2023-09-12T10:26:41;7.03;;;5.97;;
2386;SDS011;49473;50.772;8.768;2023-09-12T10:29:10;6.97;;;5.40;;
2386;SDS011;49473;50.772;8.768;2023-09-12T10:31:39;7.13;;;6.30;;
2386;SDS011;49473;50.772;8.768;2023-09-12T10:34:06;8.30;;;5.60;;
2386;SDS011;49473;50.772;8.768;2023-09-12T10:36:36;7.00;;;5.20;;
2386;SDS011;49473;50.772;8.768;2023-09-12T10:39:04;8.73;;;5.77;;
2386;SDS011;49473;50.772;8.768;2023-09-12T10:41:32;7.60;;;5.70;;
2386;SDS011;49473;50.772;8.768;2023-09-12T10:44:02;8.67;;;5.47;;
2386;SDS011;49473;50.772;8.768;2023-09-12T10:46:35;6.10;;;5.40;;
2386;SDS011;49473;50.772;8.768;2023-09-12T10:49:03;10.10;;;5.17;;
2386;SDS011;49473;50.772;8.768;2023-09-12T10:51:33;8.40;;;4.53;;
2386;SDS011;49473;50.772;8.768;2023-09-12T10:54:03;6.13;;;5.20;;
2386;SDS011;49473;50.772;8.768;2023-09-12T10:56:30;8.33;;;4.73;;
2386;SDS011;49473;50.772;8.768;2023-09-12T10:59:13;5.97;;;5.20;;
2386;SDS011;49473;50.772;8.768;2023-09-12T11:01:41;10.10;;;5.17;;
2386;SDS011;49473;50.772;8.768;2023-09-12T11:04:29;6.20;;;4.80;;
2386;SDS011;49473;50.772;8.768;2023-09-12T11:07:01;10.50;;;5.07;;
2386;SDS011;49473;50.772;8.768;2023-09-12T11:09:48;8.43;;;5.40;;
2386;SDS011;49473;50.772;8.768;2023-09-12T11:12:48;11.50;;;5.23;;
2386;SDS011;49473;50.772;8.768;2023-09-12T11:15:16;6.60;;;5.10;;
2386;SDS011;49473;50.772;8.768;2023-09-12T11:17:44;8.93;;;5.20;;
2386;SDS011;49473;50.772;8.768;2023-09-12T11:20:12;8.03;;;5.30;;
2386;SDS011;49473;50.772;8.768;2023-09-12T11:22:41;5.70;;;4.90;;
2386;SDS011;49473;50.772;8.768;2023-09-12T11:25:16;10.80;;;5.40;;
2386;SDS011;49473;50.772;8.768;2023-09-12T11:27:45;10.73;;;5.57;;
2386;SDS011;49473;50.772;8.768;2023-09-12T11:30:27;7.73;;;5.17;;
2386;SDS011;49473;50.772;8.768;2023-09-12T11:32:56;5.67;;;4.90;;
2386;SDS011;49473;50.772;8.768;2023-09-12T11:35:23;9.40;;;4.80;;
2386;SDS011;49473;50.772;8.768;2023-09-12T11:37:53;6.93;;;4.60;;
2386;SDS011;49473;50.772;8.768;2023-09-12T11:40:22;6.73;;;5.27;;
2386;SDS011;49473;50.772;8.768;2023-09-12T11:42:50;8.97;;;5.50;;
2386;SDS011;49473;50.772;8.768;2023-09-12T11:45:18;8.60;;;5.60;;
2386;SDS011;49473;50.772;8.768;2023-09-12T11:47:45;10.33;;;6.30;;
2386;SDS011;49473;50.772;8.768;2023-09-12T11:50:29;11.43;;;5.83;;
2386;SDS011;49473;50.772;8.768;2023-09-12T11:53:02;9.90;;;5.75;;
2386;SDS011;49473;50.772;8.768;2023-09-12T11:55:33;6.40;;;5.70;;
2386;SDS011;49473;50.772;8.768;2023-09-12T11:58:01;11.33;;;5.33;;
2386;SDS011;49473;50.772;8.768;2023-09-12T12:00:28;8.23;;;5.67;;
2386;SDS011;49473;50.772;8.768;2023-09-12T12:02:55;9.73;;;5.93;;
2386;SDS011;49473;50.772;8.768;2023-09-12T12:05:22;9.17;;;5.33;;
2386;SDS011;49473;50.772;8.768;2023-09-12T12:07:49;8.23;;;5.57;;
2386;SDS011;49473;50.772;8.768;2023-09-12T12:10:17;6.70;;;5.90;;
2386;SDS011;49473;50.772;8.768;2023-09-12T12:12:44;8.20;;;5.50;;
2386;SDS011;49473;50.772;8.768;2023-09-12T12:15:12;9.63;;;5.53;;
2386;SDS011;49473;50.772;8.768;2023-09-12T12:17:40;7.57;;;5.60;;
2386;SDS011;49473;50.772;8.768;2023-09-12T12:20:08;9.83;;;5.93;;
2386;SDS011;49473;50.772;8.768;2023-09-12T12:22:36;7.90;;;6.17;;
2386;SDS011;49473;50.772;8.768;2023-09-12T12:25:07;10.40;;;5.73;;
2386;SDS011;49473;50.772;8.768;2023-09-12T12:27:36;12.07;;;5.37;;
2386;SDS011;49473;50.772;8.768;2023-09-12T12:30:04;8.37;;;6.00;;
2386;SDS011;49473;50.772;8.768;2023-09-12T12:32:32;8.57;;;5.80;;
2386;SDS011;49473;50.772;8.768;2023-09-12T12:34:59;6.47;;;5.87;;
2386;SDS011;49473;50.772;8.768;2023-09-12T12:37:28;6.87;;;5.43;;
2386;SDS011;49473;50.772;8.768;2023-09-12T12:39:57;9.93;;;6.37;;
2386;SDS011;49473;50.772;8.768;2023-09-12T12:42:24;7.37;;;5.57;;
2386;SDS011;49473;50.772;8.768;2023-09-12T12:44:53;8.20;;;5.77;;
2386;SDS011;49473;50.772;8.768;2023-09-12T12:47:21;8.33;;;6.37;;
2386;SDS011;49473;50.772;8.768;2023-09-12T12:49:50;11.23;;;6.00;;
2386;SDS011;49473;50.772;8.768;2023-09-12T12:52:21;6.10;;;5.50;;
2386;SDS011;49473;50.772;8.768;2023-09-12T12:54:49;9.60;;;6.33;;
2386;SDS011;49473;50.772;8.768;2023-09-12T12:57:18;7.90;;;5.30;;
2386;SDS011;49473;50.772;8.768;2023-09-12T12:59:45;6.37;;;5.67;;
2386;SDS011;49473;50.772;8.768;2023-09-12T13:02:14;11.33;;;6.60;;
2386;SDS011;49473;50.772;8.768;2023-09-12T13:04:41;10.47;;;6.70;;
2386;SDS011;49473;50.772;8.768;2023-09-12T13:07:08;6.63;;;5.63;;
2386;SDS011;49473;50.772;8.768;2023-09-12T13:09:35;9.17;;;5.67;;
2386;SDS011;49473;50.772;8.768;2023-09-12T13:12:03;8.23;;;6.10;;
2386;SDS011;49473;50.772;8.768;2023-09-12T13:14:31;8.50;;;6.20;;
2386;SDS011;49473;50.772;8.768;2023-09-12T13:16:58;7.23;;;5.97;;
2386;SDS011;49473;50.772;8.768;2023-09-12T13:19:26;15.77;;;6.90;;
2386;SDS011;49473;50.772;8.768;2023-09-12T13:21:53;9.50;;;6.43;;
2386;SDS011;49473;50.772;8.768;2023-09-12T13:24:20;12.00;;;7.17;;
2386;SDS011;49473;50.772;8.768;2023-09-12T13:26:46;9.13;;;6.93;;
2386;SDS011;49473;50.772;8.768;2023-09-12T13:29:13;7.93;;;6.93;;
2386;SDS011;49473;50.772;8.768;2023-09-12T13:31:41;7.90;;;7.10;;
2386;SDS011;49473;50.772;8.768;2023-09-12T13:34:08;8.20;;;6.63;;
2386;SDS011;49473;50.772;8.768;2023-09-12T13:36:36;8.17;;;6.67;;
2386;SDS011;49473;50.772;8.768;2023-09-12T13:39:02;11.67;;;7.50;;
2386;SDS011;49473;50.772;8.768;2023-09-12T13:41:31;7.77;;;7.13;;
2386;SDS011;49473;50.772;8.768;2023-09-12T13:43:58;8.60;;;6.80;;
2386;SDS011;49473;50.772;8.768;2023-09-12T13:46:25;8.37;;;7.50;;
2386;SDS011;49473;50.772;8.768;2023-09-12T13:48:51;13.33;;;8.70;;
2386;SDS011;49473;50.772;8.768;2023-09-12T13:51:18;9.10;;;8.13;;
2386;SDS011;49473;50.772;8.768;2023-09-12T13:53:46;8.03;;;7.20;;
2386;SDS011;49473;50.772;8.768;2023-09-12T13:56:13;8.90;;;6.90;;
2386;SDS011;49473;50.772;8.768;2023-09-12T13:58:40;11.83;;;7.73;;
2386;SDS011;49473;50.772;8.768;2023-09-12T14:01:06;10.73;;;7.90;;
2386;SDS011;49473;50.772;8.768;2023-09-12T14:03:33;9.73;;;7.30;;
2386;SDS011;49473;50.772;8.768;2023-09-12T14:06:00;9.60;;;7.13;;
2386;SDS011;49473;50.772;8.768;2023-09-12T14:08:27;10.67;;;7.60;;
2386;SDS011;49473;50.772;8.768;2023-09-12T14:10:55;8.40;;;7.60;;
2386;SDS011;49473;50.772;8.768;2023-09-12T14:13:22;9.37;;;7.57;;
2386;SDS011;49473;50.772;8.768;2023-09-12T14:15:48;8.93;;;7.83;;
2386;SDS011;49473;50.772;8.768;2023-09-12T14:18:16;9.83;;;8.10;;
2386;SDS011;49473;50.772;8.768;2023-09-12T14:20:42;9.03;;;7.30;;
2386;SDS011;49473;50.772;8.768;2023-09-12T14:23:09;11.47;;;8.00;;
2386;SDS011;49473;50.772;8.768;2023-09-12T14:25:36;8.07;;;7.27;;
2386;SDS011;49473;50.772;8.768;2023-09-12T14:28:04;9.67;;;7.27;;
2386;SDS011;49473;50.772;8.768;2023-09-12T14:30:31;11.30;;;7.80;;
2386;SDS011;49473;50.772;8.768;2023-09-12T14:33:01;10.97;;;7.43;;
2386;SDS011;49473;50.772;8.768;2023-09-12T14:35:28;13.67;;;7.87;;
2386;SDS011;49473;50.772;8.768;2023-09-12T14:37:55;10.17;;;8.33;;
2386;SDS011;49473;50.772;8.768;2023-09-12T14:40:23;9.33;;;7.57;;
2386;SDS011;49473;50.772;8.768;2023-09-12T14:42:51;13.50;;;7.70;;
2386;SDS011;49473;50.772;8.768;2023-09-12T14:45:19;8.53;;;7.63;;
2386;SDS011;49473;50.772;8.768;2023-09-12T14:47:46;9.10;;;8.17;;
2386;SDS011;49473;50.772;8.768;2023-09-12T14:50:13;9.60;;;8.10;;
2386;SDS011;49473;50.772;8.768;2023-09-12T14:52:40;9.17;;;8.03;;
2386;SDS011;49473;50.772;8.768;2023-09-12T14:55:07;12.93;;;7.00;;